Time,TemperatureF,DewpointF,PressureIn,WindDirection,WindDirectionDegrees,WindSpeedMPH,WindSpeedGustMPH,Humidity,HourlyPrecipIn,Conditions,Clouds,dailyrainin,SoftwareType,DateUTC
2013-09-08 00:02:00,56.0,47.4,30.23,North,0,0.0,0.0,73,0.00,,,0.00,WUHU216HW,2013-09-08 07:02:00,
2013-09-08 00:07:00,55.8,47.3,30.23,North,0,0.0,0.0,73,0.00,,,0.00,WUHU216HW,2013-09-08 07:07:00,
2013-09-08 00:12:00,55.6,47.1,30.23,North,0,0.0,0.0,73,0.00,,,0.00,WUHU216HW,2013-09-08 07:12:00,
2013-09-08 00:17:00,55.4,46.9,30.23,North,0,0.0,0.0,73,0.00,,,0.00,WUHU216HW,2013-09-08 07:17:00,
2013-09-08 00:22:00,55.3,46.7,30.23,North,0,0.0,0.0,73,0.00,,,0.00,WUHU216HW,2013-09-08 07:22:00,
2013-09-08 00:27:00,55.1,46.6,30.23,North,0,0.0,0.0,73,0.00,,,0.00,WUHU216HW,2013-09-08 07:27:00,
2013-09-08 00:32:00,54.9,46.5,30.23,North,0,0.0,0.0,73,0.00,,,0.00,WUHU216HW,2013-09-08 07:32:00,
2013-09-08 00:37:00,54.9,46.5,30.23,North,0,0.0,0.0,73,0.00,,,0.00,WUHU216HW,2013-09-08 07:37:00,
2013-09-08 00:42:00,54.7,46.3,30.23,North,0,0.0,0.0,73,0.00,,,0.00,WUHU216HW,2013-09-08 07:42:00,
2013-09-08 00:47:00,54.7,46.3,30.23,North,0,0.0,0.0,73,0.00,,,0.00,WUHU216HW,2013-09-08 07:47:00,
2013-09-08 00:52:00,54.5,46.1,30.23,North,0,0.0,0.0,73,0.00,,,0.00,WUHU216HW,2013-09-08 07:52:00,
2013-09-08 00:57:00,54.4,45.9,30.23,North,0,0.0,0.0,73,0.00,,,0.00,WUHU216HW,2013-09-08 07:57:00,
2013-09-08 01:02:00,54.4,45.9,30.23,North,0,0.0,0.0,73,0.00,,,0.00,WUHU216HW,2013-09-08 08:02:00,
2013-09-08 01:07:00,54.4,46.3,30.23,North,0,0.0,0.0,74,0.00,,,0.00,WUHU216HW,2013-09-08 08:07:00,
2013-09-08 01:12:00,54.4,46.3,30.22,North,0,0.0,0.0,74,0.00,,,0.00,WUHU216HW,2013-09-08 08:12:00,
2013-09-08 01:17:00,54.4,46.6,30.23,North,0,0.0,0.0,75,0.00,,,0.00,WUHU216HW,2013-09-08 08:17:00,
2013-09-08 01:22:00,54.5,46.8,30.23,North,0,0.0,0.0,75,0.00,,,0.00,WUHU216HW,2013-09-08 08:22:00,
2013-09-08 01:27:00,54.5,46.8,30.23,North,0,0.0,0.0,75,0.00,,,0.00,WUHU216HW,2013-09-08 08:27:00,
2013-09-08 01:32:00,54.5,46.8,30.23,North,0,0.0,0.0,75,0.00,,,0.00,WUHU216HW,2013-09-08 08:32:00,
2013-09-08 01:37:00,54.5,46.8,30.22,North,0,0.0,0.0,75,0.00,,,0.00,WUHU216HW,2013-09-08 08:37:00,
2013-09-08 01:42:00,54.7,46.9,30.22,North,0,0.0,0.0,75,0.00,,,0.00,WUHU216HW,2013-09-08 08:42:00,
2013-09-08 01:47:00,54.9,47.1,30.22,North,0,0.0,0.0,75,0.00,,,0.00,WUHU216HW,2013-09-08 08:47:00,
2013-09-08 01:52:00,55.1,47.3,30.22,North,0,0.0,0.0,75,0.00,,,0.00,WUHU216HW,2013-09-08 08:52:00,
2013-09-08 01:57:00,55.1,47.3,30.22,North,0,0.0,0.0,75,0.00,,,0.00,WUHU216HW,2013-09-08 08:57:00,
2013-09-08 02:02:00,55.3,47.4,30.22,North,0,0.0,0.0,75,0.00,,,0.00,WUHU216HW,2013-09-08 09:02:00,
2013-09-08 02:07:00,55.3,47.4,30.22,North,0,0.0,0.0,75,0.00,,,0.00,WUHU216HW,2013-09-08 09:07:00,
2013-09-08 02:12:00,55.4,48.0,30.22,North,0,0.0,0.0,76,0.00,,,0.00,WUHU216HW,2013-09-08 09:12:00,
2013-09-08 02:17:00,55.4,48.0,30.22,North,0,0.0,0.0,76,0.00,,,0.00,WUHU216HW,2013-09-08 09:17:00,
2013-09-08 02:22:00,55.4,48.0,30.22,North,0,0.0,0.0,76,0.00,,,0.00,WUHU216HW,2013-09-08 09:22:00,
2013-09-08 02:27:00,55.6,48.2,30.21,North,0,0.0,0.0,76,0.00,,,0.00,WUHU216HW,2013-09-08 09:27:00,
2013-09-08 02:32:00,55.6,48.2,30.21,North,0,0.0,0.0,76,0.00,,,0.00,WUHU216HW,2013-09-08 09:32:00,
2013-09-08 02:37:00,55.8,48.3,30.21,North,0,0.0,0.0,76,0.00,,,0.00,WUHU216HW,2013-09-08 09:37:00,
2013-09-08 02:42:00,55.6,48.2,30.21,North,0,0.0,0.0,76,0.00,,,0.00,WUHU216HW,2013-09-08 09:42:00,
2013-09-08 02:47:00,55.4,47.6,30.21,North,0,0.0,0.0,75,0.00,,,0.00,WUHU216HW,2013-09-08 09:47:00,
2013-09-08 02:52:00,55.4,47.6,30.21,North,0,0.0,0.0,75,0.00,,,0.00,WUHU216HW,2013-09-08 09:52:00,
2013-09-08 02:57:00,55.4,47.6,30.20,North,0,0.0,0.0,75,0.00,,,0.00,WUHU216HW,2013-09-08 09:57:00,
2013-09-08 03:02:00,55.4,47.6,30.21,North,0,0.0,0.0,75,0.00,,,0.00,WUHU216HW,2013-09-08 10:02:00,
2013-09-08 03:07:00,55.3,47.4,30.21,North,0,0.0,0.0,75,0.00,,,0.00,WUHU216HW,2013-09-08 10:07:00,
2013-09-08 03:12:00,55.1,47.3,30.20,North,0,0.0,0.0,75,0.00,,,0.00,WUHU216HW,2013-09-08 10:12:00,
2013-09-08 03:17:00,55.3,47.4,30.20,North,0,0.0,0.0,75,0.00,,,0.00,WUHU216HW,2013-09-08 10:17:00,
2013-09-08 03:22:00,55.3,47.4,30.20,North,0,0.0,0.0,75,0.00,,,0.00,WUHU216HW,2013-09-08 10:22:00,
2013-09-08 03:26:00,55.3,47.4,30.20,North,0,0.0,0.0,75,0.00,,,0.00,WUHU216HW,2013-09-08 10:26:00,
2013-09-08 03:31:00,55.3,47.4,30.20,North,0,0.0,0.0,75,0.00,,,0.00,WUHU216HW,2013-09-08 10:31:00,
2013-09-08 03:37:00,55.3,47.4,30.20,North,0,0.0,0.0,75,0.00,,,0.00,WUHU216HW,2013-09-08 10:37:00,
2013-09-08 03:42:00,55.4,48.0,30.19,North,0,0.0,0.0,76,0.00,,,0.00,WUHU216HW,2013-09-08 10:42:00,
2013-09-08 03:47:00,55.6,48.2,30.20,North,0,0.0,0.0,76,0.00,,,0.00,WUHU216HW,2013-09-08 10:47:00,
2013-09-08 03:52:00,55.8,48.3,30.20,North,0,0.0,0.0,76,0.00,,,0.00,WUHU216HW,2013-09-08 10:52:00,
2013-09-08 03:57:00,55.8,48.3,30.20,North,0,0.0,0.0,76,0.00,,,0.00,WUHU216HW,2013-09-08 10:57:00,
2013-09-08 04:02:00,55.8,48.0,30.20,North,0,0.0,0.0,75,0.00,,,0.00,WUHU216HW,2013-09-08 11:02:00,
2013-09-08 04:07:00,55.8,48.3,30.19,North,0,0.0,0.0,76,0.00,,,0.00,WUHU216HW,2013-09-08 11:07:00,
2013-09-08 04:12:00,55.8,48.3,30.20,North,0,0.0,0.0,76,0.00,,,0.00,WUHU216HW,2013-09-08 11:12:00,
2013-09-08 04:17:00,55.8,48.3,30.20,North,0,0.0,0.0,76,0.00,,,0.00,WUHU216HW,2013-09-08 11:17:00,
2013-09-08 04:22:00,56.0,48.5,30.20,North,0,0.0,0.0,76,0.00,,,0.00,WUHU216HW,2013-09-08 11:22:00,
2013-09-08 04:27:00,56.0,48.5,30.20,North,0,0.0,0.0,76,0.00,,,0.00,WUHU216HW,2013-09-08 11:27:00,
2013-09-08 04:32:00,56.2,48.6,30.20,North,0,0.0,0.0,76,0.00,,,0.00,WUHU216HW,2013-09-08 11:32:00,
2013-09-08 04:37:00,56.2,48.6,30.20,North,0,0.0,0.0,76,0.00,,,0.00,WUHU216HW,2013-09-08 11:37:00,
2013-09-08 04:42:00,56.2,48.6,30.20,North,0,0.0,0.0,76,0.00,,,0.00,WUHU216HW,2013-09-08 11:42:00,
2013-09-08 04:47:00,56.3,48.8,30.19,North,0,0.0,0.0,76,0.00,,,0.00,WUHU216HW,2013-09-08 11:47:00,
2013-09-08 04:52:00,56.3,48.8,30.20,North,0,0.0,0.0,76,0.00,,,0.00,WUHU216HW,2013-09-08 11:52:00,
2013-09-08 04:57:00,56.5,49.0,30.20,North,0,0.0,0.0,76,0.00,,,0.00,WUHU216HW,2013-09-08 11:57:00,
2013-09-08 05:02:00,56.5,49.0,30.20,North,0,0.0,0.0,76,0.00,,,0.00,WUHU216HW,2013-09-08 12:02:00,
2013-09-08 05:07:00,56.7,49.1,30.20,North,0,0.0,0.0,76,0.00,,,0.00,WUHU216HW,2013-09-08 12:07:00,
2013-09-08 05:12:00,56.9,49.3,30.20,North,0,0.0,0.0,76,0.00,,,0.00,WUHU216HW,2013-09-08 12:12:00,
2013-09-08 05:17:00,56.7,49.1,30.20,North,0,0.0,0.0,76,0.00,,,0.00,WUHU216HW,2013-09-08 12:17:00,
2013-09-08 05:22:00,56.7,49.1,30.20,North,0,0.0,0.0,76,0.00,,,0.00,WUHU216HW,2013-09-08 12:22:00,
2013-09-08 05:27:00,56.7,49.1,30.20,North,0,0.0,0.0,76,0.00,,,0.00,WUHU216HW,2013-09-08 12:27:00,
2013-09-08 05:32:00,56.7,49.1,30.20,North,0,0.0,0.0,76,0.00,,,0.00,WUHU216HW,2013-09-08 12:32:00,
2013-09-08 05:37:00,56.7,49.1,30.20,North,0,0.0,0.0,76,0.00,,,0.00,WUHU216HW,2013-09-08 12:37:00,
2013-09-08 05:42:00,56.7,49.1,30.20,North,0,0.0,0.0,76,0.00,,,0.00,WUHU216HW,2013-09-08 12:42:00,
2013-09-08 05:47:00,56.7,49.1,30.20,North,0,0.0,0.0,76,0.00,,,0.00,WUHU216HW,2013-09-08 12:47:00,
2013-09-08 05:52:00,56.7,49.1,30.20,North,0,0.0,0.0,76,0.00,,,0.00,WUHU216HW,2013-09-08 12:52:00,
2013-09-08 05:57:00,56.7,49.1,30.20,North,0,0.0,0.0,76,0.00,,,0.00,WUHU216HW,2013-09-08 12:57:00,
2013-09-08 06:02:00,56.7,49.1,30.20,North,0,0.0,0.0,76,0.00,,,0.00,WUHU216HW,2013-09-08 13:02:00,
2013-09-08 06:07:00,56.7,49.1,30.20,North,0,0.0,0.0,76,0.00,,,0.00,WUHU216HW,2013-09-08 13:07:00,
2013-09-08 06:12:00,56.9,49.3,30.20,North,0,0.0,0.0,76,0.00,,,0.00,WUHU216HW,2013-09-08 13:12:00,
2013-09-08 06:17:00,57.2,49.7,30.21,North,0,0.0,0.0,76,0.00,,,0.00,WUHU216HW,2013-09-08 13:17:00,
2013-09-08 06:22:00,57.2,49.7,30.21,North,0,0.0,0.0,76,0.00,,,0.00,WUHU216HW,2013-09-08 13:22:00,
2013-09-08 06:27:00,57.2,49.7,30.21,North,0,0.0,0.0,76,0.00,,,0.00,WUHU216HW,2013-09-08 13:27:00,
2013-09-08 06:32:00,57.2,49.7,30.21,North,0,0.0,0.0,76,0.00,,,0.00,WUHU216HW,2013-09-08 13:32:00,
2013-09-08 06:37:00,57.2,49.7,30.21,North,0,0.0,0.0,76,0.00,,,0.00,WUHU216HW,2013-09-08 13:37:00,
2013-09-08 06:42:00,57.2,49.7,30.21,North,0,0.0,0.0,76,0.00,,,0.00,WUHU216HW,2013-09-08 13:42:00,
2013-09-08 06:47:00,57.2,49.7,30.21,North,0,0.0,0.0,76,0.00,,,0.00,WUHU216HW,2013-09-08 13:47:00,
2013-09-08 06:52:00,57.2,49.7,30.21,North,0,0.0,0.0,76,0.00,,,0.00,WUHU216HW,2013-09-08 13:52:00,
2013-09-08 06:57:00,57.4,49.9,30.21,North,0,0.0,0.0,76,0.00,,,0.00,WUHU216HW,2013-09-08 13:57:00,
2013-09-08 07:02:00,57.4,49.9,30.21,North,0,0.0,0.0,76,0.00,,,0.00,WUHU216HW,2013-09-08 14:02:00,
2013-09-08 07:07:00,57.4,49.9,30.21,North,0,0.0,0.0,76,0.00,,,0.00,WUHU216HW,2013-09-08 14:07:00,
2013-09-08 07:12:00,57.4,49.9,30.21,North,0,0.0,0.0,76,0.00,,,0.00,WUHU216HW,2013-09-08 14:12:00,
2013-09-08 07:17:00,57.6,50.0,30.21,North,0,0.0,0.0,76,0.00,,,0.00,WUHU216HW,2013-09-08 14:17:00,
2013-09-08 07:22:00,57.6,50.0,30.21,North,0,0.0,0.0,76,0.00,,,0.00,WUHU216HW,2013-09-08 14:22:00,
2013-09-08 07:27:00,57.6,50.0,30.21,North,0,0.0,0.0,76,0.00,,,0.00,WUHU216HW,2013-09-08 14:27:00,
2013-09-08 07:32:00,57.8,50.2,30.21,North,0,0.0,0.0,76,0.00,,,0.00,WUHU216HW,2013-09-08 14:32:00,
2013-09-08 07:37:00,58.0,50.4,30.21,North,0,0.0,0.0,76,0.00,,,0.00,WUHU216HW,2013-09-08 14:37:00,
2013-09-08 07:42:00,58.0,50.4,30.21,North,0,0.0,0.0,76,0.00,,,0.00,WUHU216HW,2013-09-08 14:42:00,
2013-09-08 07:47:00,58.0,50.4,30.21,North,0,0.0,0.0,76,0.00,,,0.00,WUHU216HW,2013-09-08 14:47:00,
2013-09-08 07:52:00,58.0,50.4,30.21,North,0,0.0,0.0,76,0.00,,,0.00,WUHU216HW,2013-09-08 14:52:00,
2013-09-08 07:57:00,58.0,50.4,30.21,North,0,0.0,0.0,76,0.00,,,0.00,WUHU216HW,2013-09-08 14:57:00,
2013-09-08 08:02:00,58.0,50.4,30.21,North,0,0.0,0.0,76,0.01,,,0.01,WUHU216HW,2013-09-08 15:02:00,
2013-09-08 08:07:00,58.0,50.4,30.21,North,0,0.0,0.0,76,0.02,,,0.02,WUHU216HW,2013-09-08 15:07:00,
2013-09-08 08:12:00,58.0,50.4,30.21,North,0,0.0,0.0,76,0.05,,,0.05,WUHU216HW,2013-09-08 15:12:00,
2013-09-08 08:17:00,58.0,50.4,30.21,North,0,0.0,0.0,76,0.05,,,0.05,WUHU216HW,2013-09-08 15:17:00,
2013-09-08 08:22:00,58.0,50.4,30.21,North,0,0.0,0.0,76,0.05,,,0.05,WUHU216HW,2013-09-08 15:22:00,
2013-09-08 08:27:00,58.0,50.4,30.21,North,0,0.0,0.0,76,0.05,,,0.05,WUHU216HW,2013-09-08 15:27:00,
2013-09-08 08:32:00,58.0,50.4,30.21,North,0,0.0,0.0,76,0.05,,,0.05,WUHU216HW,2013-09-08 15:32:00,
2013-09-08 08:37:00,58.1,50.6,30.21,North,0,0.0,0.0,76,0.05,,,0.05,WUHU216HW,2013-09-08 15:37:00,
2013-09-08 08:42:00,58.3,50.8,30.21,North,0,0.0,0.0,76,0.05,,,0.05,WUHU216HW,2013-09-08 15:42:00,
2013-09-08 08:47:00,58.7,51.5,30.21,North,0,0.0,0.0,77,0.05,,,0.05,WUHU216HW,2013-09-08 15:47:00,
2013-09-08 08:52:00,59.2,52.0,30.21,North,0,0.0,0.0,77,0.07,,,0.07,WUHU216HW,2013-09-08 15:52:00,
2013-09-08 08:57:00,59.4,51.8,30.21,North,0,0.0,0.0,76,0.07,,,0.07,WUHU216HW,2013-09-08 15:57:00,
2013-09-08 09:02:00,59.4,51.8,30.21,North,0,0.0,0.0,76,0.06,,,0.07,WUHU216HW,2013-09-08 16:02:00,
2013-09-08 09:07:00,59.6,52.0,30.21,North,0,0.0,0.0,76,0.05,,,0.07,WUHU216HW,2013-09-08 16:07:00,
2013-09-08 09:12:00,59.8,51.8,30.21,North,0,0.0,0.0,75,0.02,,,0.07,WUHU216HW,2013-09-08 16:12:00,
2013-09-08 09:17:00,59.8,51.8,30.21,North,0,0.0,0.0,75,0.02,,,0.07,WUHU216HW,2013-09-08 16:17:00,
2013-09-08 09:22:00,59.8,51.5,30.21,North,0,0.0,0.0,74,0.02,,,0.07,WUHU216HW,2013-09-08 16:22:00,
2013-09-08 09:27:00,59.9,51.7,30.21,North,0,0.0,0.0,74,0.02,,,0.07,WUHU216HW,2013-09-08 16:27:00,
2013-09-08 09:32:00,60.1,51.8,30.21,North,0,0.0,0.0,74,0.02,,,0.07,WUHU216HW,2013-09-08 16:32:00,
2013-09-08 09:37:00,60.3,51.7,30.21,North,0,0.0,0.0,73,0.02,,,0.07,WUHU216HW,2013-09-08 16:37:00,
2013-09-08 09:42:00,60.5,51.8,30.21,North,0,0.0,0.0,73,0.02,,,0.07,WUHU216HW,2013-09-08 16:42:00,
2013-09-08 09:47:00,60.8,52.2,30.21,North,0,0.0,0.0,73,0.02,,,0.07,WUHU216HW,2013-09-08 16:47:00,
2013-09-08 09:52:00,61.2,52.6,30.21,North,0,0.0,0.0,73,0.00,,,0.07,WUHU216HW,2013-09-08 16:52:00,
2013-09-08 09:57:00,61.4,52.7,30.21,North,0,0.0,0.0,73,0.00,,,0.07,WUHU216HW,2013-09-08 16:57:00,
2013-09-08 10:02:00,61.6,52.5,30.21,North,0,0.0,0.0,72,0.00,,,0.07,WUHU216HW,2013-09-08 17:02:00,
2013-09-08 10:07:00,61.6,52.1,30.21,North,0,0.0,0.0,71,0.00,,,0.07,WUHU216HW,2013-09-08 17:07:00,
2013-09-08 10:12:00,61.6,52.1,30.21,North,0,0.0,0.0,71,0.00,,,0.07,WUHU216HW,2013-09-08 17:12:00,
2013-09-08 10:17:00,61.4,51.9,30.21,North,0,0.0,0.0,71,0.00,,,0.07,WUHU216HW,2013-09-08 17:17:00,
2013-09-08 10:22:00,61.6,52.1,30.21,North,0,0.0,0.0,71,0.00,,,0.07,WUHU216HW,2013-09-08 17:22:00,
2013-09-08 10:27:00,61.6,52.1,30.21,North,0,0.0,0.0,71,0.00,,,0.07,WUHU216HW,2013-09-08 17:27:00,
2013-09-08 10:32:00,61.6,52.1,30.21,North,0,0.0,0.0,71,0.00,,,0.07,WUHU216HW,2013-09-08 17:32:00,
2013-09-08 10:37:00,61.6,52.1,30.20,North,0,0.0,0.0,71,0.00,,,0.07,WUHU216HW,2013-09-08 17:37:00,
2013-09-08 10:42:00,61.6,52.1,30.20,North,0,0.0,0.0,71,0.00,,,0.07,WUHU216HW,2013-09-08 17:42:00,
2013-09-08 10:47:00,61.6,52.1,30.20,North,0,0.0,0.0,71,0.00,,,0.07,WUHU216HW,2013-09-08 17:47:00,
2013-09-08 10:52:00,61.6,52.1,30.20,North,0,0.0,0.0,71,0.00,,,0.07,WUHU216HW,2013-09-08 17:52:00,
2013-09-08 10:57:00,61.4,51.9,30.20,North,0,0.0,0.0,71,0.00,,,0.07,WUHU216HW,2013-09-08 17:57:00,
2013-09-08 11:02:00,61.6,52.1,30.20,North,0,0.0,0.0,71,0.00,,,0.07,WUHU216HW,2013-09-08 18:02:00,
2013-09-08 11:07:00,61.7,52.3,30.20,North,0,0.0,0.0,71,0.00,,,0.07,WUHU216HW,2013-09-08 18:07:00,
2013-09-08 11:12:00,61.7,52.3,30.19,North,0,0.0,0.0,71,0.00,,,0.07,WUHU216HW,2013-09-08 18:12:00,
2013-09-08 11:17:00,62.1,53.0,30.20,North,0,0.0,0.0,72,0.00,,,0.07,WUHU216HW,2013-09-08 18:17:00,
2013-09-08 11:22:00,62.1,53.0,30.20,North,0,0.0,0.0,72,0.00,,,0.07,WUHU216HW,2013-09-08 18:22:00,
2013-09-08 11:27:00,62.1,52.7,30.20,North,0,0.0,0.0,71,0.00,,,0.07,WUHU216HW,2013-09-08 18:27:00,
2013-09-08 11:32:00,61.9,52.1,30.20,North,0,0.0,0.0,70,0.00,,,0.07,WUHU216HW,2013-09-08 18:32:00,
2013-09-08 11:37:00,61.7,51.9,30.20,North,0,0.0,0.0,70,0.00,,,0.07,WUHU216HW,2013-09-08 18:37:00,
2013-09-08 11:42:00,61.6,51.8,30.20,North,0,0.0,0.0,70,0.00,,,0.07,WUHU216HW,2013-09-08 18:42:00,
2013-09-08 11:47:00,61.6,51.8,30.20,North,0,0.0,0.0,70,0.00,,,0.07,WUHU216HW,2013-09-08 18:47:00,
2013-09-08 11:52:00,61.0,51.3,30.21,North,0,0.0,0.0,70,0.00,,,0.07,WUHU216HW,2013-09-08 18:52:00,
2013-09-08 11:57:00,60.3,50.6,30.21,North,0,0.0,0.0,70,0.00,,,0.07,WUHU216HW,2013-09-08 18:57:00,
2013-09-08 12:02:00,59.6,49.9,30.21,North,0,0.0,0.0,70,0.06,,,0.13,WUHU216HW,2013-09-08 19:02:00,
2013-09-08 12:07:00,58.5,49.1,30.21,North,0,0.0,0.0,71,0.09,,,0.16,WUHU216HW,2013-09-08 19:07:00,
2013-09-08 12:12:00,58.0,49.0,30.20,North,0,0.0,0.0,72,0.10,,,0.17,WUHU216HW,2013-09-08 19:12:00,
2013-09-08 12:17:00,57.8,49.1,30.20,North,0,0.0,0.0,73,0.11,,,0.18,WUHU216HW,2013-09-08 19:17:00,
2013-09-08 12:22:00,58.0,49.3,30.20,North,0,0.0,0.0,73,0.12,,,0.19,WUHU216HW,2013-09-08 19:22:00,
2013-09-08 12:27:00,58.0,49.3,30.20,North,0,0.0,0.0,73,0.12,,,0.19,WUHU216HW,2013-09-08 19:27:00,
2013-09-08 12:32:00,58.3,50.0,30.20,North,0,0.0,0.0,74,0.13,,,0.20,WUHU216HW,2013-09-08 19:32:00,
2013-09-08 12:37:00,58.7,50.8,30.20,North,0,0.0,0.0,75,0.14,,,0.21,WUHU216HW,2013-09-08 19:37:00,
2013-09-08 12:42:00,59.0,51.1,30.20,North,0,0.0,0.0,75,0.14,,,0.21,WUHU216HW,2013-09-08 19:42:00,
2013-09-08 12:47:00,58.9,50.6,30.19,North,0,0.0,0.0,74,0.14,,,0.21,WUHU216HW,2013-09-08 19:47:00,
2013-09-08 12:52:00,59.0,50.8,30.19,North,0,0.0,0.0,74,0.14,,,0.21,WUHU216HW,2013-09-08 19:52:00,
2013-09-08 12:57:00,59.4,51.1,30.19,North,0,0.0,0.0,74,0.12,,,0.21,WUHU216HW,2013-09-08 19:57:00,
2013-09-08 13:02:00,59.8,51.5,30.19,North,0,0.0,0.0,74,0.08,,,0.21,WUHU216HW,2013-09-08 20:02:00,
2013-09-08 13:07:00,59.6,51.3,30.19,North,0,0.0,0.0,74,0.05,,,0.21,WUHU216HW,2013-09-08 20:07:00,
2013-09-08 13:12:00,59.8,51.5,30.19,North,0,0.0,0.0,74,0.04,,,0.21,WUHU216HW,2013-09-08 20:12:00,
2013-09-08 13:17:00,59.8,51.5,30.19,North,0,0.0,0.0,74,0.03,,,0.21,WUHU216HW,2013-09-08 20:17:00,
2013-09-08 13:22:00,59.9,51.7,30.18,North,0,0.0,0.0,74,0.02,,,0.21,WUHU216HW,2013-09-08 20:22:00,
2013-09-08 13:27:00,60.1,51.8,30.18,North,0,0.0,0.0,74,0.02,,,0.21,WUHU216HW,2013-09-08 20:27:00,
2013-09-08 13:32:00,60.3,51.7,30.18,North,0,0.0,0.0,73,0.01,,,0.21,WUHU216HW,2013-09-08 20:32:00,
2013-09-08 13:37:00,60.7,52.0,30.18,North,0,0.0,0.0,73,0.00,,,0.21,WUHU216HW,2013-09-08 20:37:00,
2013-09-08 13:42:00,60.8,52.2,30.17,North,0,0.0,0.0,73,0.00,,,0.21,WUHU216HW,2013-09-08 20:42:00,
2013-09-08 13:47:00,61.0,52.4,30.17,North,0,0.0,0.0,73,0.00,,,0.21,WUHU216HW,2013-09-08 20:47:00,
2013-09-08 13:52:00,61.2,52.2,30.17,North,0,0.0,0.0,72,0.00,,,0.21,WUHU216HW,2013-09-08 20:52:00,
2013-09-08 13:57:00,61.2,52.2,30.17,North,0,0.0,0.0,72,0.00,,,0.21,WUHU216HW,2013-09-08 20:57:00,
2013-09-08 14:02:00,61.2,51.9,30.17,North,0,0.0,0.0,71,0.00,,,0.21,WUHU216HW,2013-09-08 21:02:00,
2013-09-08 14:07:00,61.0,51.3,30.16,North,0,0.0,0.0,70,0.00,,,0.21,WUHU216HW,2013-09-08 21:07:00,
2013-09-08 14:12:00,60.8,51.1,30.16,North,0,0.0,0.0,70,0.00,,,0.21,WUHU216HW,2013-09-08 21:12:00,
2013-09-08 14:17:00,60.8,51.1,30.16,North,0,0.0,0.0,70,0.00,,,0.21,WUHU216HW,2013-09-08 21:17:00,
2013-09-08 14:22:00,61.0,51.3,30.16,North,0,0.0,0.0,70,0.00,,,0.21,WUHU216HW,2013-09-08 21:22:00,
2013-09-08 14:27:00,61.0,51.3,30.16,North,0,0.0,0.0,70,0.00,,,0.21,WUHU216HW,2013-09-08 21:27:00,
2013-09-08 14:32:00,61.0,51.3,30.16,North,0,0.0,0.0,70,0.00,,,0.21,WUHU216HW,2013-09-08 21:32:00,
2013-09-08 14:37:00,61.0,51.3,30.16,North,0,0.0,0.0,70,0.00,,,0.21,WUHU216HW,2013-09-08 21:37:00,
2013-09-08 14:42:00,61.0,51.3,30.16,North,0,0.0,0.0,70,0.00,,,0.21,WUHU216HW,2013-09-08 21:42:00,
2013-09-08 14:47:00,61.0,51.7,30.16,North,0,0.0,0.0,71,0.00,,,0.21,WUHU216HW,2013-09-08 21:47:00,
2013-09-08 14:52:00,61.0,51.7,30.16,North,0,0.0,0.0,71,0.00,,,0.21,WUHU216HW,2013-09-08 21:52:00,
2013-09-08 14:57:00,61.0,51.7,30.16,North,0,0.0,0.0,71,0.00,,,0.21,WUHU216HW,2013-09-08 21:57:00,
2013-09-08 15:02:00,60.8,51.5,30.15,North,0,0.0,0.0,71,0.00,,,0.21,WUHU216HW,2013-09-08 22:02:00,
2013-09-08 15:07:00,60.8,51.5,30.14,North,0,0.0,0.0,71,0.00,,,0.21,WUHU216HW,2013-09-08 22:07:00,
2013-09-08 15:12:00,60.8,51.5,30.13,North,0,0.0,0.0,71,0.00,,,0.21,WUHU216HW,2013-09-08 22:12:00,
2013-09-08 15:17:00,61.0,51.7,30.13,North,0,0.0,0.0,71,0.01,,,0.22,WUHU216HW,2013-09-08 22:17:00,
2013-09-08 15:22:00,60.7,51.3,30.12,North,0,0.0,0.0,71,0.01,,,0.22,WUHU216HW,2013-09-08 22:22:00,
2013-09-08 15:27:00,60.7,51.3,30.13,North,0,0.0,0.0,71,0.02,,,0.23,WUHU216HW,2013-09-08 22:27:00,
2013-09-08 15:32:00,60.7,51.7,30.13,North,0,0.0,0.0,72,0.02,,,0.23,WUHU216HW,2013-09-08 22:32:00,
2013-09-08 15:37:00,61.0,52.0,30.13,North,0,0.0,0.0,72,0.02,,,0.23,WUHU216HW,2013-09-08 22:37:00,
2013-09-08 15:42:00,61.2,52.2,30.13,North,0,0.0,0.0,72,0.02,,,0.23,WUHU216HW,2013-09-08 22:42:00,
2013-09-08 15:47:00,61.6,52.5,30.13,North,0,0.0,0.0,72,0.02,,,0.23,WUHU216HW,2013-09-08 22:47:00,
2013-09-08 15:52:00,61.6,52.5,30.12,North,0,0.0,0.0,72,0.02,,,0.23,WUHU216HW,2013-09-08 22:52:00,
2013-09-08 15:57:00,61.7,52.7,30.13,North,0,0.0,0.0,72,0.02,,,0.23,WUHU216HW,2013-09-08 22:57:00,
2013-09-08 16:02:00,61.7,52.7,30.13,North,0,0.0,0.0,72,0.02,,,0.23,WUHU216HW,2013-09-08 23:02:00,
2013-09-08 16:07:00,61.9,52.5,30.13,North,0,0.0,0.0,71,0.02,,,0.23,WUHU216HW,2013-09-08 23:07:00,
2013-09-08 16:12:00,62.1,51.4,30.13,North,0,0.0,0.0,68,0.02,,,0.23,WUHU216HW,2013-09-08 23:12:00,
2013-09-08 16:17:00,63.7,54.2,30.13,North,0,0.0,0.0,71,0.01,,,0.23,WUHU216HW,2013-09-08 23:17:00,
2013-09-08 16:22:00,65.3,55.4,30.13,North,0,0.0,0.0,70,0.01,,,0.23,WUHU216HW,2013-09-08 23:22:00,
2013-09-08 16:27:00,65.5,55.1,30.13,North,0,0.0,0.0,69,0.00,,,0.23,WUHU216HW,2013-09-08 23:27:00,
2013-09-08 16:32:00,65.3,53.6,30.13,North,0,0.0,0.0,66,0.00,,,0.23,WUHU216HW,2013-09-08 23:32:00,
2013-09-08 16:37:00,65.7,54.5,30.13,North,0,0.0,0.0,67,0.00,,,0.23,WUHU216HW,2013-09-08 23:37:00,
2013-09-08 16:42:00,65.9,54.2,30.13,North,0,0.0,0.0,66,0.00,,,0.23,WUHU216HW,2013-09-08 23:42:00,
2013-09-08 16:47:00,65.7,54.0,30.13,North,0,0.0,0.0,66,0.00,,,0.23,WUHU216HW,2013-09-08 23:47:00,
2013-09-08 16:52:00,66.1,54.4,30.13,North,0,0.0,0.0,66,0.00,,,0.23,WUHU216HW,2013-09-08 23:52:00,
2013-09-08 16:57:00,66.2,54.1,30.13,North,0,0.0,0.0,65,0.00,,,0.23,WUHU216HW,2013-09-08 23:57:00,
2013-09-08 17:02:00,65.5,53.4,30.13,North,0,0.0,0.0,65,0.00,,,0.23,WUHU216HW,2013-09-09 00:02:00,
2013-09-08 17:07:00,65.3,53.3,30.12,North,0,0.0,0.0,65,0.00,,,0.23,WUHU216HW,2013-09-09 00:07:00,
2013-09-08 17:12:00,65.7,53.6,30.13,North,0,0.0,0.0,65,0.00,,,0.23,WUHU216HW,2013-09-09 00:12:00,
2013-09-08 17:17:00,65.9,53.7,30.13,North,0,0.0,0.0,65,0.00,,,0.23,WUHU216HW,2013-09-09 00:17:00,
2013-09-08 17:22:00,65.9,53.4,30.13,North,0,0.0,0.0,64,0.00,,,0.23,WUHU216HW,2013-09-09 00:22:00,
2013-09-08 17:27:00,66.6,54.5,30.13,North,0,0.0,0.0,65,0.00,,,0.23,WUHU216HW,2013-09-09 00:27:00,
2013-09-08 17:32:00,66.6,54.0,30.13,North,0,0.0,0.0,64,0.00,,,0.23,WUHU216HW,2013-09-09 00:32:00,
2013-09-08 17:37:00,66.4,53.5,30.13,North,0,0.0,0.0,63,0.00,,,0.23,WUHU216HW,2013-09-09 00:37:00,
2013-09-08 17:42:00,66.1,53.1,30.13,North,0,0.0,0.0,63,0.00,,,0.23,WUHU216HW,2013-09-09 00:42:00,
2013-09-08 17:47:00,65.5,52.6,30.12,North,0,0.0,0.0,63,0.00,,,0.23,WUHU216HW,2013-09-09 00:47:00,
2013-09-08 17:52:00,64.8,51.8,30.12,North,0,0.0,0.0,63,0.00,,,0.23,WUHU216HW,2013-09-09 00:52:00,
2013-09-08 17:57:00,64.4,51.5,30.12,North,0,0.0,0.0,63,0.00,,,0.23,WUHU216HW,2013-09-09 00:57:00,
2013-09-08 18:02:00,64.1,51.2,30.12,North,0,0.0,0.0,63,0.00,,,0.23,WUHU216HW,2013-09-09 01:02:00,
2013-09-08 18:07:00,63.9,51.5,30.12,North,0,0.0,0.0,64,0.00,,,0.23,WUHU216HW,2013-09-09 01:07:00,
2013-09-08 18:12:00,63.7,51.7,30.12,North,0,0.0,0.0,65,0.00,,,0.23,WUHU216HW,2013-09-09 01:12:00,
2013-09-08 18:17:00,63.5,51.6,30.12,North,0,0.0,0.0,65,0.00,,,0.23,WUHU216HW,2013-09-09 01:17:00,
2013-09-08 18:22:00,63.2,51.2,30.12,North,0,0.0,0.0,65,0.00,,,0.23,WUHU216HW,2013-09-09 01:22:00,
2013-09-08 18:27:00,62.8,50.9,30.12,North,0,0.0,0.0,65,0.00,,,0.23,WUHU216HW,2013-09-09 01:27:00,
2013-09-08 18:32:00,62.5,51.0,30.12,North,0,0.0,0.0,66,0.00,,,0.23,WUHU216HW,2013-09-09 01:32:00,
2013-09-08 18:37:00,62.3,50.8,30.13,North,0,0.0,0.0,66,0.00,,,0.23,WUHU216HW,2013-09-09 01:37:00,
2013-09-08 18:42:00,61.9,50.9,30.13,North,0,0.0,0.0,67,0.00,,,0.23,WUHU216HW,2013-09-09 01:42:00,
2013-09-08 18:47:00,61.6,50.5,30.13,North,0,0.0,0.0,67,0.00,,,0.23,WUHU216HW,2013-09-09 01:47:00,
2013-09-08 18:52:00,61.4,50.8,30.13,North,0,0.0,0.0,68,0.00,,,0.23,WUHU216HW,2013-09-09 01:52:00,
2013-09-08 18:57:00,61.2,50.6,30.13,North,0,0.0,0.0,68,0.00,,,0.23,WUHU216HW,2013-09-09 01:57:00,
2013-09-08 19:02:00,61.0,50.0,30.13,North,0,0.0,0.0,67,0.00,,,0.23,WUHU216HW,2013-09-09 02:02:00,
2013-09-08 19:07:00,60.8,49.9,30.13,North,0,0.0,0.0,67,0.00,,,0.23,WUHU216HW,2013-09-09 02:07:00,
2013-09-08 19:12:00,60.3,49.3,30.13,North,0,0.0,0.0,67,0.00,,,0.23,WUHU216HW,2013-09-09 02:12:00,
2013-09-08 19:17:00,59.9,49.4,30.13,North,0,0.0,0.0,68,0.00,,,0.23,WUHU216HW,2013-09-09 02:17:00,
2013-09-08 19:22:00,59.8,49.2,30.13,North,0,0.0,0.0,68,0.00,,,0.23,WUHU216HW,2013-09-09 02:22:00,
2013-09-08 19:27:00,59.6,49.1,30.13,North,0,0.0,0.0,68,0.00,,,0.23,WUHU216HW,2013-09-09 02:27:00,
2013-09-08 19:32:00,59.2,49.1,30.13,North,0,0.0,0.0,69,0.00,,,0.23,WUHU216HW,2013-09-09 02:32:00,
2013-09-08 19:37:00,59.0,48.9,30.13,North,0,0.0,0.0,69,0.00,,,0.23,WUHU216HW,2013-09-09 02:37:00,
2013-09-08 19:42:00,59.0,48.9,30.13,North,0,0.0,0.0,69,0.00,,,0.23,WUHU216HW,2013-09-09 02:42:00,
2013-09-08 19:47:00,58.9,48.7,30.13,North,0,0.0,0.0,69,0.00,,,0.23,WUHU216HW,2013-09-09 02:47:00,
2013-09-08 19:52:00,58.7,48.5,30.14,North,0,0.0,0.0,69,0.00,,,0.23,WUHU216HW,2013-09-09 02:52:00,
2013-09-08 19:57:00,58.7,48.5,30.14,North,0,0.0,0.0,69,0.00,,,0.23,WUHU216HW,2013-09-09 02:57:00,
2013-09-08 20:02:00,58.7,49.0,30.14,North,0,0.0,0.0,70,0.00,,,0.23,WUHU216HW,2013-09-09 03:02:00,
2013-09-08 20:07:00,58.5,48.8,30.14,North,0,0.0,0.0,70,0.00,,,0.23,WUHU216HW,2013-09-09 03:07:00,
2013-09-08 20:12:00,58.5,48.8,30.14,North,0,0.0,0.0,70,0.00,,,0.23,WUHU216HW,2013-09-09 03:12:00,
2013-09-08 20:17:00,58.5,48.8,30.14,North,0,0.0,0.0,70,0.00,,,0.23,WUHU216HW,2013-09-09 03:17:00,
2013-09-08 20:22:00,58.3,48.6,30.14,North,0,0.0,0.0,70,0.00,,,0.23,WUHU216HW,2013-09-09 03:22:00,
2013-09-08 20:27:00,58.1,48.4,30.14,North,0,0.0,0.0,70,0.00,,,0.23,WUHU216HW,2013-09-09 03:27:00,
2013-09-08 20:32:00,58.0,48.2,30.14,North,0,0.0,0.0,70,0.00,,,0.23,WUHU216HW,2013-09-09 03:32:00,
2013-09-08 20:37:00,58.0,48.2,30.14,North,0,0.0,0.0,70,0.00,,,0.23,WUHU216HW,2013-09-09 03:37:00,
2013-09-08 20:42:00,57.6,48.2,30.14,North,0,0.0,0.0,71,0.00,,,0.23,WUHU216HW,2013-09-09 03:42:00,
2013-09-08 20:47:00,57.4,48.1,30.14,North,0,0.0,0.0,71,0.00,,,0.23,WUHU216HW,2013-09-09 03:47:00,
2013-09-08 20:52:00,57.4,48.1,30.14,North,0,0.0,0.0,71,0.00,,,0.23,WUHU216HW,2013-09-09 03:52:00,
2013-09-08 20:57:00,57.4,48.1,30.15,North,0,0.0,0.0,71,0.00,,,0.23,WUHU216HW,2013-09-09 03:57:00,
2013-09-08 21:01:00,57.2,47.9,30.15,North,0,0.0,0.0,71,0.00,,,0.23,WUHU216HW,2013-09-09 04:01:00,
2013-09-08 21:03:00,57.2,47.9,30.15,North,0,0.0,0.0,71,0.00,,,0.23,WUHU216HW,2013-09-09 04:03:00,
2013-09-08 21:07:00,57.2,48.2,30.14,North,0,0.0,0.0,72,0.00,,,0.23,WUHU216HW,2013-09-09 04:07:00,
2013-09-08 21:12:00,57.2,48.2,30.15,North,0,0.0,0.0,72,0.00,,,0.23,WUHU216HW,2013-09-09 04:12:00,
2013-09-08 21:17:00,57.2,48.2,30.15,North,0,0.0,0.0,72,0.00,,,0.23,WUHU216HW,2013-09-09 04:17:00,
2013-09-08 21:22:00,57.4,48.8,30.15,North,0,0.0,0.0,73,0.00,,,0.23,WUHU216HW,2013-09-09 04:22:00,
2013-09-08 21:27:00,57.4,48.8,30.15,North,0,0.0,0.0,73,0.00,,,0.23,WUHU216HW,2013-09-09 04:27:00,
2013-09-08 21:32:00,57.6,49.0,30.15,North,0,0.0,0.0,73,0.00,,,0.23,WUHU216HW,2013-09-09 04:32:00,
2013-09-08 21:37:00,57.6,49.0,30.15,North,0,0.0,0.0,73,0.00,,,0.23,WUHU216HW,2013-09-09 04:37:00,
2013-09-08 21:42:00,57.6,49.0,30.15,North,0,0.0,0.0,73,0.00,,,0.23,WUHU216HW,2013-09-09 04:42:00,
2013-09-08 21:47:00,57.4,48.8,30.15,North,0,0.0,0.0,73,0.00,,,0.23,WUHU216HW,2013-09-09 04:47:00,
2013-09-08 21:52:00,57.4,48.8,30.15,North,0,0.0,0.0,73,0.00,,,0.23,WUHU216HW,2013-09-09 04:52:00,
2013-09-08 21:57:00,57.4,48.8,30.15,North,0,0.0,0.0,73,0.00,,,0.23,WUHU216HW,2013-09-09 04:57:00,
2013-09-08 22:02:00,57.4,48.8,30.15,North,0,0.0,0.0,73,0.00,,,0.23,WUHU216HW,2013-09-09 05:02:00,
2013-09-08 22:07:00,57.4,48.8,30.16,North,0,0.0,0.0,73,0.00,,,0.23,WUHU216HW,2013-09-09 05:07:00,
2013-09-08 22:12:00,57.4,48.8,30.15,North,0,0.0,0.0,73,0.00,,,0.23,WUHU216HW,2013-09-09 05:12:00,
2013-09-08 22:17:00,57.4,48.8,30.15,North,0,0.0,0.0,73,0.00,,,0.23,WUHU216HW,2013-09-09 05:17:00,
2013-09-08 22:22:00,57.6,49.0,30.15,North,0,0.0,0.0,73,0.00,,,0.23,WUHU216HW,2013-09-09 05:22:00,
2013-09-08 22:27:00,57.6,49.0,30.15,North,0,0.0,0.0,73,0.00,,,0.23,WUHU216HW,2013-09-09 05:27:00,
2013-09-08 22:32:00,57.6,49.3,30.16,North,0,0.0,0.0,74,0.00,,,0.23,WUHU216HW,2013-09-09 05:32:00,
2013-09-08 22:37:00,57.6,49.3,30.15,North,0,0.0,0.0,74,0.00,,,0.23,WUHU216HW,2013-09-09 05:37:00,
2013-09-08 22:42:00,57.8,49.5,30.15,North,0,0.0,0.0,74,0.00,,,0.23,WUHU216HW,2013-09-09 05:42:00,
2013-09-08 22:47:00,58.0,49.7,30.15,North,0,0.0,0.0,74,0.00,,,0.23,WUHU216HW,2013-09-09 05:47:00,
2013-09-08 22:52:00,57.8,49.5,30.15,North,0,0.0,0.0,74,0.00,,,0.23,WUHU216HW,2013-09-09 05:52:00,
2013-09-08 22:57:00,57.8,49.5,30.15,North,0,0.0,0.0,74,0.00,,,0.23,WUHU216HW,2013-09-09 05:57:00,
2013-09-08 23:02:00,57.6,49.3,30.15,North,0,0.0,0.0,74,0.00,,,0.23,WUHU216HW,2013-09-09 06:02:00,
2013-09-08 23:07:00,57.6,49.3,30.15,North,0,0.0,0.0,74,0.00,,,0.23,WUHU216HW,2013-09-09 06:07:00,
2013-09-08 23:12:00,57.6,49.3,30.15,North,0,0.0,0.0,74,0.00,,,0.23,WUHU216HW,2013-09-09 06:12:00,
2013-09-08 23:17:00,57.6,49.3,30.15,North,0,0.0,0.0,74,0.00,,,0.23,WUHU216HW,2013-09-09 06:17:00,
2013-09-08 23:22:00,57.6,49.3,30.14,North,0,0.0,0.0,74,0.00,,,0.23,WUHU216HW,2013-09-09 06:22:00,
2013-09-08 23:27:00,57.4,49.1,30.14,North,0,0.0,0.0,74,0.00,,,0.23,WUHU216HW,2013-09-09 06:27:00,
2013-09-08 23:32:00,57.2,49.0,30.14,North,0,0.0,0.0,74,0.00,,,0.23,WUHU216HW,2013-09-09 06:32:00,
2013-09-08 23:37:00,57.2,49.0,30.14,North,0,0.0,0.0,74,0.00,,,0.23,WUHU216HW,2013-09-09 06:37:00,
2013-09-08 23:42:00,57.2,49.0,30.14,North,0,0.0,0.0,74,0.00,,,0.23,WUHU216HW,2013-09-09 06:42:00,
2013-09-08 23:47:00,57.2,49.0,30.14,North,0,0.0,0.0,74,0.00,,,0.23,WUHU216HW,2013-09-09 06:47:00,
2013-09-08 23:52:00,57.2,49.0,30.14,North,0,0.0,0.0,74,0.00,,,0.23,WUHU216HW,2013-09-09 06:52:00,
2013-09-08 23:57:00,57.4,49.1,30.14,North,0,0.0,0.0,74,0.00,,,0.23,WUHU216HW,2013-09-09 06:57:00,